sensor_id;sensor_type;location;lat;lon;timestamp;pressure;altitude;pressure_sealevel;temperature;humidity
51781;BME280;37844;57.126;24.288;2023-04-29T00:00:49;101674.94;;;3.27;100.00
51781;BME280;37844;57.126;24.288;2023-04-29T00:03:33;101684.63;;;3.18;100.00
51781;BME280;37844;57.126;24.288;2023-04-29T00:06:17;101677.59;;;3.14;100.00
51781;BME280;37844;57.126;24.288;2023-04-29T00:09:01;101675.53;;;3.08;100.00
51781;BME280;37844;57.126;24.288;2023-04-29T00:11:46;101679.84;;;3.09;100.00
51781;BME280;37844;57.126;24.288;2023-04-29T00:14:33;101679.56;;;2.90;100.00
51781;BME280;37844;57.126;24.288;2023-04-29T00:17:16;101684.81;;;2.78;100.00
51781;BME280;37844;57.126;24.288;2023-04-29T00:20:01;101676.06;;;3.03;100.00
51781;BME280;37844;57.126;24.288;2023-04-29T00:22:45;101675.72;;;3.11;100.00
51781;BME280;37844;57.126;24.288;2023-04-29T00:25:29;101683.28;;;3.10;100.00
51781;BME280;37844;57.126;24.288;2023-04-29T00:28:13;101674.66;;;3.08;100.00
51781;BME280;37844;57.126;24.288;2023-04-29T00:30:57;101687.16;;;2.75;100.00
51781;BME280;37844;57.126;24.288;2023-04-29T00:33:41;101679.63;;;2.48;100.00
51781;BME280;37844;57.126;24.288;2023-04-29T00:36:25;101688.91;;;2.61;100.00
51781;BME280;37844;57.126;24.288;2023-04-29T00:39:09;101692.28;;;2.47;100.00
51781;BME280;37844;57.126;24.288;2023-04-29T00:41:54;101690.16;;;2.40;100.00
51781;BME280;37844;57.126;24.288;2023-04-29T00:44:38;101689.59;;;2.30;100.00
51781;BME280;37844;57.126;24.288;2023-04-29T00:47:22;101680.50;;;2.21;100.00
51781;BME280;37844;57.126;24.288;2023-04-29T00:50:07;101686.59;;;2.09;100.00
51781;BME280;37844;57.126;24.288;2023-04-29T00:52:52;101689.47;;;2.29;100.00
51781;BME280;37844;57.126;24.288;2023-04-29T00:55:36;101695.09;;;2.23;100.00
51781;BME280;37844;57.126;24.288;2023-04-29T00:58:19;101561.34;;;1.44;100.00
51781;BME280;37844;57.126;24.288;2023-04-29T01:01:04;101693.78;;;2.30;100.00
51781;BME280;37844;57.126;24.288;2023-04-29T01:03:49;101694.28;;;2.11;100.00
51781;BME280;37844;57.126;24.288;2023-04-29T01:09:22;101690.06;;;2.25;100.00
51781;BME280;37844;57.126;24.288;2023-04-29T01:12:26;101689.53;;;1.89;100.00
51781;BME280;37844;57.126;24.288;2023-04-29T01:15:22;101693.16;;;1.93;100.00
51781;BME280;37844;57.126;24.288;2023-04-29T01:18:10;101691.59;;;1.81;100.00
51781;BME280;37844;57.126;24.288;2023-04-29T01:20:55;101692.28;;;1.79;100.00
51781;BME280;37844;57.126;24.288;2023-04-29T01:23:40;101681.94;;;1.76;100.00
51781;BME280;37844;57.126;24.288;2023-04-29T01:26:24;101691.13;;;1.74;100.00
51781;BME280;37844;57.126;24.288;2023-04-29T01:32:00;101692.97;;;1.76;100.00
51781;BME280;37844;57.126;24.288;2023-04-29T01:34:49;101693.94;;;1.65;100.00
51781;BME280;37844;57.126;24.288;2023-04-29T01:37:40;101697.66;;;1.83;100.00
51781;BME280;37844;57.126;24.288;2023-04-29T01:40:35;101697.06;;;1.87;100.00
51781;BME280;37844;57.126;24.288;2023-04-29T01:43:24;101701.06;;;1.70;100.00
51781;BME280;37844;57.126;24.288;2023-04-29T01:46:11;101696.19;;;1.60;100.00
51781;BME280;37844;57.126;24.288;2023-04-29T01:48:56;101702.72;;;1.70;100.00
51781;BME280;37844;57.126;24.288;2023-04-29T01:51:40;101697.94;;;1.61;100.00
51781;BME280;37844;57.126;24.288;2023-04-29T01:54:24;101702.34;;;1.51;100.00
51781;BME280;37844;57.126;24.288;2023-04-29T01:57:08;101703.03;;;1.75;100.00
51781;BME280;37844;57.126;24.288;2023-04-29T01:59:52;101703.22;;;1.51;100.00
51781;BME280;37844;57.126;24.288;2023-04-29T02:02:36;101702.34;;;1.51;100.00
51781;BME280;37844;57.126;24.288;2023-04-29T02:05:20;101706.63;;;1.52;100.00
51781;BME280;37844;57.126;24.288;2023-04-29T02:08:04;101702.06;;;1.59;100.00
51781;BME280;37844;57.126;24.288;2023-04-29T02:10:50;101713.63;;;1.42;100.00
51781;BME280;37844;57.126;24.288;2023-04-29T02:13:35;101709.94;;;1.37;100.00
51781;BME280;37844;57.126;24.288;2023-04-29T02:16:19;101715.97;;;1.26;100.00
51781;BME280;37844;57.126;24.288;2023-04-29T02:19:03;101709.53;;;1.31;100.00
51781;BME280;37844;57.126;24.288;2023-04-29T02:21:47;101707.31;;;1.36;100.00
51781;BME280;37844;57.126;24.288;2023-04-29T02:24:31;101702.72;;;1.43;100.00
51781;BME280;37844;57.126;24.288;2023-04-29T02:27:15;101706.91;;;1.56;100.00
51781;BME280;37844;57.126;24.288;2023-04-29T02:29:59;101698.31;;;1.54;100.00
51781;BME280;37844;57.126;24.288;2023-04-29T02:32:43;101702.44;;;1.52;100.00
51781;BME280;37844;57.126;24.288;2023-04-29T02:35:27;101700.94;;;1.42;100.00
51781;BME280;37844;57.126;24.288;2023-04-29T02:38:11;101703.78;;;1.34;100.00
51781;BME280;37844;57.126;24.288;2023-04-29T02:40:55;101702.00;;;1.33;100.00
51781;BME280;37844;57.126;24.288;2023-04-29T02:43:39;101718.28;;;1.23;100.00
51781;BME280;37844;57.126;24.288;2023-04-29T02:46:23;101705.44;;;1.33;100.00
51781;BME280;37844;57.126;24.288;2023-04-29T02:49:07;101703.63;;;1.57;100.00
51781;BME280;37844;57.126;24.288;2023-04-29T02:51:51;101704.47;;;1.44;100.00
51781;BME280;37844;57.126;24.288;2023-04-29T02:54:35;101707.91;;;1.45;100.00
51781;BME280;37844;57.126;24.288;2023-04-29T02:57:19;101703.22;;;1.51;100.00
51781;BME280;37844;57.126;24.288;2023-04-29T03:00:03;101706.53;;;1.50;100.00
51781;BME280;37844;57.126;24.288;2023-04-29T03:02:48;101703.22;;;1.51;100.00
51781;BME280;37844;57.126;24.288;2023-04-29T03:05:32;101705.66;;;1.63;100.00
51781;BME280;37844;57.126;24.288;2023-04-29T03:08:17;101709.75;;;1.61;100.00
51781;BME280;37844;57.126;24.288;2023-04-29T03:11:01;101711.25;;;1.57;100.00
51781;BME280;37844;57.126;24.288;2023-04-29T03:13:45;101708.09;;;1.61;100.00
51781;BME280;37844;57.126;24.288;2023-04-29T03:16:29;101705.47;;;1.60;100.00
51781;BME280;37844;57.126;24.288;2023-04-29T03:19:14;101702.63;;;1.55;100.00
51781;BME280;37844;57.126;24.288;2023-04-29T03:21:59;101712.41;;;1.62;100.00
51781;BME280;37844;57.126;24.288;2023-04-29T03:24:43;101707.44;;;1.64;100.00
51781;BME280;37844;57.126;24.288;2023-04-29T03:27:27;101716.91;;;1.80;100.00
51781;BME280;37844;57.126;24.288;2023-04-29T03:30:11;101723.78;;;1.81;100.00
51781;BME280;37844;57.126;24.288;2023-04-29T03:32:55;101718.47;;;1.78;100.00
51781;BME280;37844;57.126;24.288;2023-04-29T03:35:39;101720.91;;;1.89;100.00
51781;BME280;37844;57.126;24.288;2023-04-29T03:38:23;101726.00;;;2.03;100.00
51781;BME280;37844;57.126;24.288;2023-04-29T03:41:08;101729.78;;;2.23;100.00
51781;BME280;37844;57.126;24.288;2023-04-29T03:43:52;101735.03;;;2.39;100.00
51781;BME280;37844;57.126;24.288;2023-04-29T03:46:37;101736.59;;;2.37;100.00
51781;BME280;37844;57.126;24.288;2023-04-29T03:49:21;101735.56;;;2.33;100.00
51781;BME280;37844;57.126;24.288;2023-04-29T03:52:06;101732.53;;;2.26;100.00
51781;BME280;37844;57.126;24.288;2023-04-29T03:54:50;101731.13;;;2.44;100.00
51781;BME280;37844;57.126;24.288;2023-04-29T03:57:34;101734.91;;;2.51;100.00
51781;BME280;37844;57.126;24.288;2023-04-29T04:00:18;101729.91;;;2.66;100.00
51781;BME280;37844;57.126;24.288;2023-04-29T04:03:02;101731.75;;;2.68;100.00
51781;BME280;37844;57.126;24.288;2023-04-29T04:05:46;101734.41;;;2.85;100.00
51781;BME280;37844;57.126;24.288;2023-04-29T04:08:30;101731.81;;;2.98;100.00
51781;BME280;37844;57.126;24.288;2023-04-29T04:11:14;101729.72;;;3.06;100.00
51781;BME280;37844;57.126;24.288;2023-04-29T04:13:58;101725.59;;;3.08;100.00
51781;BME280;37844;57.126;24.288;2023-04-29T04:16:42;101727.38;;;3.09;100.00
51781;BME280;37844;57.126;24.288;2023-04-29T04:19:26;101729.78;;;3.21;100.00
51781;BME280;37844;57.126;24.288;2023-04-29T04:22:11;101723.16;;;3.39;100.00
51781;BME280;37844;57.126;24.288;2023-04-29T04:24:56;101727.50;;;3.40;100.00
51781;BME280;37844;57.126;24.288;2023-04-29T04:27:40;101723.53;;;3.60;100.00
51781;BME280;37844;57.126;24.288;2023-04-29T04:30:24;101722.38;;;3.70;100.00
51781;BME280;37844;57.126;24.288;2023-04-29T04:33:08;101728.25;;;3.83;100.00
51781;BME280;37844;57.126;24.288;2023-04-29T04:35:53;101731.94;;;3.89;100.00
51781;BME280;37844;57.126;24.288;2023-04-29T04:38:37;101718.97;;;4.15;100.00
51781;BME280;37844;57.126;24.288;2023-04-29T04:41:21;101725.53;;;4.43;100.00
51781;BME280;37844;57.126;24.288;2023-04-29T04:44:05;101719.91;;;4.65;100.00
51781;BME280;37844;57.126;24.288;2023-04-29T04:46:49;101724.72;;;4.75;100.00
51781;BME280;37844;57.126;24.288;2023-04-29T04:49:34;101727.88;;;5.04;100.00
51781;BME280;37844;57.126;24.288;2023-04-29T04:52:21;101713.00;;;5.29;100.00
51781;BME280;37844;57.126;24.288;2023-04-29T04:55:05;101715.34;;;5.43;100.00
51781;BME280;37844;57.126;24.288;2023-04-29T04:57:49;101713.47;;;5.57;100.00
51781;BME280;37844;57.126;24.288;2023-04-29T05:00:33;101712.88;;;5.62;100.00
51781;BME280;37844;57.126;24.288;2023-04-29T05:03:17;101717.41;;;5.86;100.00
51781;BME280;37844;57.126;24.288;2023-04-29T05:06:01;101715.78;;;6.04;100.00
51781;BME280;37844;57.126;24.288;2023-04-29T05:08:45;101723.78;;;6.30;100.00
51781;BME280;37844;57.126;24.288;2023-04-29T05:11:29;101716.75;;;6.63;100.00
51781;BME280;37844;57.126;24.288;2023-04-29T05:14:12;101705.72;;;7.05;100.00
51781;BME280;37844;57.126;24.288;2023-04-29T05:16:59;101711.16;;;7.32;100.00
51781;BME280;37844;57.126;24.288;2023-04-29T05:19:44;101710.44;;;7.55;100.00
51781;BME280;37844;57.126;24.288;2023-04-29T05:22:28;101712.28;;;7.80;100.00
51781;BME280;37844;57.126;24.288;2023-04-29T05:25:12;101708.84;;;8.46;100.00
51781;BME280;37844;57.126;24.288;2023-04-29T05:27:56;101706.94;;;8.64;100.00
51781;BME280;37844;57.126;24.288;2023-04-29T05:30:40;101702.66;;;8.89;100.00
51781;BME280;37844;57.126;24.288;2023-04-29T05:33:24;101707.34;;;9.25;100.00
51781;BME280;37844;57.126;24.288;2023-04-29T05:36:08;101706.53;;;9.79;100.00
51781;BME280;37844;57.126;24.288;2023-04-29T05:38:52;101708.47;;;9.86;100.00
51781;BME280;37844;57.126;24.288;2023-04-29T05:41:36;101711.91;;;10.13;100.00
51781;BME280;37844;57.126;24.288;2023-04-29T05:44:20;101710.16;;;10.41;99.12
51781;BME280;37844;57.126;24.288;2023-04-29T05:47:04;101702.09;;;10.60;96.16
51781;BME280;37844;57.126;24.288;2023-04-29T05:49:48;101710.63;;;11.21;93.41
51781;BME280;37844;57.126;24.288;2023-04-29T05:52:32;101701.03;;;11.16;89.38
51781;BME280;37844;57.126;24.288;2023-04-29T05:55:16;101713.03;;;11.14;86.72
51781;BME280;37844;57.126;24.288;2023-04-29T05:58:00;101707.91;;;11.49;84.87
51781;BME280;37844;57.126;24.288;2023-04-29T06:00:44;101706.69;;;11.71;82.76
51781;BME280;37844;57.126;24.288;2023-04-29T06:03:28;101712.88;;;12.14;79.89
51781;BME280;37844;57.126;24.288;2023-04-29T06:06:13;101710.63;;;12.70;76.73
51781;BME280;37844;57.126;24.288;2023-04-29T06:08:58;101708.19;;;13.26;74.48
51781;BME280;37844;57.126;24.288;2023-04-29T06:11:43;101711.88;;;13.91;71.42
51781;BME280;37844;57.126;24.288;2023-04-29T06:14:28;101698.47;;;14.94;67.00
51781;BME280;37844;57.126;24.288;2023-04-29T06:17:11;101706.00;;;15.61;62.77
51781;BME280;37844;57.126;24.288;2023-04-29T06:19:55;101701.72;;;15.69;61.08
51781;BME280;37844;57.126;24.288;2023-04-29T06:22:39;101702.03;;;16.16;56.13
51781;BME280;37844;57.126;24.288;2023-04-29T06:25:23;101706.53;;;16.50;55.46
51781;BME280;37844;57.126;24.288;2023-04-29T06:28:07;101700.59;;;18.05;51.99
51781;BME280;37844;57.126;24.288;2023-04-29T06:30:51;101701.50;;;18.01;50.57
51781;BME280;37844;57.126;24.288;2023-04-29T06:33:35;101696.25;;;18.12;48.86
51781;BME280;37844;57.126;24.288;2023-04-29T06:36:20;101697.84;;;18.45;45.42
51781;BME280;37844;57.126;24.288;2023-04-29T06:39:04;101696.13;;;18.41;43.60
51781;BME280;37844;57.126;24.288;2023-04-29T06:41:48;101699.63;;;18.34;43.07
51781;BME280;37844;57.126;24.288;2023-04-29T06:44:32;101705.81;;;19.59;41.92
51781;BME280;37844;57.126;24.288;2023-04-29T06:47:17;101712.50;;;19.94;39.56
51781;BME280;37844;57.126;24.288;2023-04-29T06:50:00;101696.84;;;20.65;38.31
51781;BME280;37844;57.126;24.288;2023-04-29T06:52:44;101708.69;;;19.28;38.71
51781;BME280;37844;57.126;24.288;2023-04-29T06:55:28;101708.91;;;19.01;39.27
51781;BME280;37844;57.126;24.288;2023-04-29T06:58:15;101706.56;;;18.47;39.29
51781;BME280;37844;57.126;24.288;2023-04-29T07:01:00;101701.97;;;18.98;38.78
51781;BME280;37844;57.126;24.288;2023-04-29T07:03:46;101708.13;;;18.85;38.89
51781;BME280;37844;57.126;24.288;2023-04-29T07:06:30;101708.72;;;19.25;38.48
51781;BME280;37844;57.126;24.288;2023-04-29T07:09:14;101704.03;;;19.72;38.14
51781;BME280;37844;57.126;24.288;2023-04-29T07:11:58;101700.50;;;19.72;37.27
51781;BME280;37844;57.126;24.288;2023-04-29T07:14:42;101696.22;;;21.07;35.57
51781;BME280;37844;57.126;24.288;2023-04-29T07:17:28;101694.38;;;21.68;35.01
51781;BME280;37844;57.126;24.288;2023-04-29T07:20:12;101701.19;;;21.78;34.60
51781;BME280;37844;57.126;24.288;2023-04-29T07:22:55;101700.47;;;22.99;32.63
51781;BME280;37844;57.126;24.288;2023-04-29T07:25:39;101708.34;;;23.00;32.92
51781;BME280;37844;57.126;24.288;2023-04-29T07:28:24;101701.13;;;23.08;32.51
51781;BME280;37844;57.126;24.288;2023-04-29T07:31:08;101700.00;;;23.19;31.88
51781;BME280;37844;57.126;24.288;2023-04-29T07:33:52;101696.81;;;23.76;31.17
51781;BME280;37844;57.126;24.288;2023-04-29T07:36:37;101690.00;;;24.00;30.59
51781;BME280;37844;57.126;24.288;2023-04-29T07:39:22;101686.06;;;25.03;28.65
51781;BME280;37844;57.126;24.288;2023-04-29T07:42:06;101690.72;;;24.37;29.25
51781;BME280;37844;57.126;24.288;2023-04-29T07:44:50;101684.66;;;25.46;29.19
51781;BME280;37844;57.126;24.288;2023-04-29T07:47:33;101684.34;;;26.05;28.88
51781;BME280;37844;57.126;24.288;2023-04-29T07:50:17;101679.19;;;25.77;28.74
51781;BME280;37844;57.126;24.288;2023-04-29T07:53:02;101694.09;;;25.28;28.52
51781;BME280;37844;57.126;24.288;2023-04-29T07:55:52;101691.19;;;25.07;28.53
51781;BME280;37844;57.126;24.288;2023-04-29T07:58:43;101691.66;;;23.70;29.30
51781;BME280;37844;57.126;24.288;2023-04-29T08:01:27;101696.13;;;23.34;30.39
51781;BME280;37844;57.126;24.288;2023-04-29T08:04:11;101703.16;;;24.02;29.88
51781;BME280;37844;57.126;24.288;2023-04-29T08:06:55;101694.06;;;22.72;29.19
51781;BME280;37844;57.126;24.288;2023-04-29T08:09:39;101697.78;;;23.02;29.23
51781;BME280;37844;57.126;24.288;2023-04-29T08:12:23;101702.00;;;21.83;30.51
51781;BME280;37844;57.126;24.288;2023-04-29T08:15:07;101696.41;;;22.84;30.14
51781;BME280;37844;57.126;24.288;2023-04-29T08:17:51;101685.59;;;24.01;29.25
51781;BME280;37844;57.126;24.288;2023-04-29T08:20:34;101679.13;;;24.12;29.27
51781;BME280;37844;57.126;24.288;2023-04-29T08:23:19;101696.38;;;23.91;29.30
51781;BME280;37844;57.126;24.288;2023-04-29T08:26:03;101690.72;;;23.40;29.03
51781;BME280;37844;57.126;24.288;2023-04-29T08:28:47;101690.00;;;24.00;28.76
51781;BME280;37844;57.126;24.288;2023-04-29T08:31:31;101693.72;;;23.93;28.72
51781;BME280;37844;57.126;24.288;2023-04-29T08:34:15;101682.28;;;23.61;28.82
51781;BME280;37844;57.126;24.288;2023-04-29T08:36:59;101682.69;;;23.08;28.71
51781;BME280;37844;57.126;24.288;2023-04-29T08:39:43;101684.91;;;23.61;28.71
51781;BME280;37844;57.126;24.288;2023-04-29T08:42:33;101684.53;;;23.41;28.49
51781;BME280;37844;57.126;24.288;2023-04-29T08:45:18;101679.34;;;23.72;29.02
51781;BME280;37844;57.126;24.288;2023-04-29T08:48:03;101673.59;;;22.84;29.17
51781;BME280;37844;57.126;24.288;2023-04-29T08:50:47;101666.19;;;22.64;29.53
51781;BME280;37844;57.126;24.288;2023-04-29T08:53:31;101674.47;;;21.02;30.86
51781;BME280;37844;57.126;24.288;2023-04-29T08:56:16;101679.19;;;20.80;31.41
51781;BME280;37844;57.126;24.288;2023-04-29T08:59:04;101673.53;;;21.58;30.20
51781;BME280;37844;57.126;24.288;2023-04-29T09:01:50;101670.63;;;22.61;30.42
51781;BME280;37844;57.126;24.288;2023-04-29T09:04:39;101662.69;;;24.64;29.04
51781;BME280;37844;57.126;24.288;2023-04-29T09:07:24;101658.81;;;25.30;28.58
51781;BME280;37844;57.126;24.288;2023-04-29T09:10:09;101662.00;;;24.27;28.62
51781;BME280;37844;57.126;24.288;2023-04-29T09:12:57;101675.97;;;23.67;28.97
51781;BME280;37844;57.126;24.288;2023-04-29T09:15:41;101664.78;;;23.24;29.20
51781;BME280;37844;57.126;24.288;2023-04-29T09:21:25;101662.88;;;22.13;29.58
51781;BME280;37844;57.126;24.288;2023-04-29T09:24:14;101663.72;;;21.70;30.91
51781;BME280;37844;57.126;24.288;2023-04-29T09:27:07;101661.78;;;21.79;30.71
51781;BME280;37844;57.126;24.288;2023-04-29T09:30:01;101659.63;;;23.20;30.40
51781;BME280;37844;57.126;24.288;2023-04-29T09:32:45;101669.63;;;23.05;29.71
51781;BME280;37844;57.126;24.288;2023-04-29T09:35:30;101654.59;;;23.11;29.72
51781;BME280;37844;57.126;24.288;2023-04-29T09:38:15;101663.88;;;22.51;29.69
51781;BME280;37844;57.126;24.288;2023-04-29T09:40:59;101652.03;;;22.70;29.68
51781;BME280;37844;57.126;24.288;2023-04-29T09:44:02;101659.41;;;21.67;31.66
51781;BME280;37844;57.126;24.288;2023-04-29T09:46:57;101653.91;;;21.31;31.57
51781;BME280;37844;57.126;24.288;2023-04-29T09:49:42;101646.59;;;20.34;31.11
51781;BME280;37844;57.126;24.288;2023-04-29T09:52:28;101651.84;;;19.54;31.47
51781;BME280;37844;57.126;24.288;2023-04-29T09:55:22;101647.47;;;19.53;31.93
51781;BME280;37844;57.126;24.288;2023-04-29T09:58:06;101656.16;;;18.33;31.66
51781;BME280;37844;57.126;24.288;2023-04-29T10:00:50;101645.00;;;17.97;32.61
51781;BME280;37844;57.126;24.288;2023-04-29T10:03:35;101645.88;;;17.74;32.55
51781;BME280;37844;57.126;24.288;2023-04-29T10:06:20;101650.25;;;17.65;32.78
51781;BME280;37844;57.126;24.288;2023-04-29T10:09:05;101640.72;;;17.33;33.51
51781;BME280;37844;57.126;24.288;2023-04-29T10:11:50;101631.97;;;17.89;34.51
51781;BME280;37844;57.126;24.288;2023-04-29T10:14:47;101632.00;;;17.55;33.52
51781;BME280;37844;57.126;24.288;2023-04-29T10:20:21;101633.69;;;16.72;34.48
51781;BME280;37844;57.126;24.288;2023-04-29T10:23:06;101625.00;;;16.59;34.72
51781;BME280;37844;57.126;24.288;2023-04-29T10:25:51;101625.97;;;17.20;36.22
51781;BME280;37844;57.126;24.288;2023-04-29T10:28:35;101622.47;;;17.36;35.37
51781;BME280;37844;57.126;24.288;2023-04-29T10:31:21;101627.69;;;16.91;35.32
51781;BME280;37844;57.126;24.288;2023-04-29T10:34:05;101626.75;;;16.68;33.85
51781;BME280;37844;57.126;24.288;2023-04-29T10:36:49;101619.69;;;16.19;34.38
51781;BME280;37844;57.126;24.288;2023-04-29T10:39:47;101617.94;;;16.23;34.28
51781;BME280;37844;57.126;24.288;2023-04-29T10:42:36;101632.50;;;15.79;33.86
51781;BME280;37844;57.126;24.288;2023-04-29T10:45:23;101630.53;;;15.46;34.13
51781;BME280;37844;57.126;24.288;2023-04-29T10:48:13;101622.94;;;15.77;36.54
51781;BME280;37844;57.126;24.288;2023-04-29T10:50:58;101621.44;;;16.22;36.29
51781;BME280;37844;57.126;24.288;2023-04-29T10:56:49;101628.19;;;15.81;34.91
51781;BME280;37844;57.126;24.288;2023-04-29T11:02:19;101622.19;;;14.81;35.41
51781;BME280;37844;57.126;24.288;2023-04-29T11:05:07;101611.03;;;14.92;35.36
51781;BME280;37844;57.126;24.288;2023-04-29T11:08:07;101620.50;;;14.87;36.04
51781;BME280;37844;57.126;24.288;2023-04-29T11:10:59;101622.66;;;14.43;36.16
51781;BME280;37844;57.126;24.288;2023-04-29T11:13:44;101611.97;;;14.17;36.51
51781;BME280;37844;57.126;24.288;2023-04-29T11:16:29;101617.13;;;14.16;36.33
51781;BME280;37844;57.126;24.288;2023-04-29T11:19:13;101603.56;;;14.40;36.67
51781;BME280;37844;57.126;24.288;2023-04-29T11:22:11;101613.03;;;14.33;37.24
51781;BME280;37844;57.126;24.288;2023-04-29T11:24:57;101602.69;;;14.39;36.49
51781;BME280;37844;57.126;24.288;2023-04-29T11:27:43;101596.13;;;14.71;35.86
51781;BME280;37844;57.126;24.288;2023-04-29T11:30:30;101597.66;;;14.53;35.29
51781;BME280;37844;57.126;24.288;2023-04-29T11:33:14;101588.91;;;14.43;35.09
51781;BME280;37844;57.126;24.288;2023-04-29T11:35:58;101590.19;;;14.03;33.84
51781;BME280;37844;57.126;24.288;2023-04-29T11:38:43;101579.94;;;14.12;34.57
51781;BME280;37844;57.126;24.288;2023-04-29T11:41:27;101580.81;;;14.16;31.94
51781;BME280;37844;57.126;24.288;2023-04-29T11:44:11;101580.56;;;13.93;30.28
51781;BME280;37844;57.126;24.288;2023-04-29T11:47:04;101576.72;;;14.35;29.76
51781;BME280;37844;57.126;24.288;2023-04-29T11:49:48;101575.50;;;14.84;31.77
51781;BME280;37844;57.126;24.288;2023-04-29T11:52:39;101579.03;;;14.94;31.47
51781;BME280;37844;57.126;24.288;2023-04-29T11:55:24;101575.13;;;14.49;31.43
51781;BME280;37844;57.126;24.288;2023-04-29T11:58:09;101575.09;;;14.45;33.43
51781;BME280;37844;57.126;24.288;2023-04-29T12:00:53;101574.03;;;14.27;35.28
51781;BME280;37844;57.126;24.288;2023-04-29T12:03:37;101570.69;;;14.36;37.41
51781;BME280;37844;57.126;24.288;2023-04-29T12:06:21;101563.75;;;14.35;37.37
51781;BME280;37844;57.126;24.288;2023-04-29T12:09:05;101570.84;;;14.53;38.19
51781;BME280;37844;57.126;24.288;2023-04-29T12:11:49;101571.81;;;14.58;39.10
51781;BME280;37844;57.126;24.288;2023-04-29T12:14:33;101565.09;;;14.02;38.88
51781;BME280;37844;57.126;24.288;2023-04-29T12:17:17;101555.72;;;14.13;39.99
51781;BME280;37844;57.126;24.288;2023-04-29T12:20:01;101555.75;;;14.16;39.66
51781;BME280;37844;57.126;24.288;2023-04-29T12:22:45;101555.75;;;14.16;39.86
51781;BME280;37844;57.126;24.288;2023-04-29T12:25:30;101553.09;;;14.09;39.93
51781;BME280;37844;57.126;24.288;2023-04-29T12:28:15;101540.78;;;13.91;40.74
51781;BME280;37844;57.126;24.288;2023-04-29T12:30:59;101539.75;;;13.76;42.03
51781;BME280;37844;57.126;24.288;2023-04-29T12:33:44;101538.75;;;13.65;42.45
51781;BME280;37844;57.126;24.288;2023-04-29T12:36:28;101530.03;;;13.60;43.74
51781;BME280;37844;57.126;24.288;2023-04-29T12:39:12;101537.81;;;13.60;43.80
51781;BME280;37844;57.126;24.288;2023-04-29T12:41:57;101539.56;;;13.63;43.40
51781;BME280;37844;57.126;24.288;2023-04-29T12:44:43;101534.31;;;13.55;42.97
51781;BME280;37844;57.126;24.288;2023-04-29T12:47:31;101528.19;;;13.51;43.91
51781;BME280;37844;57.126;24.288;2023-04-29T12:50:19;101530.09;;;13.65;43.29
51781;BME280;37844;57.126;24.288;2023-04-29T12:53:04;101523.06;;;13.56;43.74
51781;BME280;37844;57.126;24.288;2023-04-29T12:55:48;101518.13;;;13.74;43.45
51781;BME280;37844;57.126;24.288;2023-04-29T12:58:32;101524.88;;;13.62;43.36
51781;BME280;37844;57.126;24.288;2023-04-29T13:01:19;101519.56;;;13.52;43.65
51781;BME280;37844;57.126;24.288;2023-04-29T13:04:04;101519.63;;;13.55;43.92
51781;BME280;37844;57.126;24.288;2023-04-29T13:06:48;101504.94;;;13.56;44.23
51781;BME280;37844;57.126;24.288;2023-04-29T13:09:36;101511.06;;;13.64;44.36
51781;BME280;37844;57.126;24.288;2023-04-29T13:12:24;101505.25;;;13.82;43.83
51781;BME280;37844;57.126;24.288;2023-04-29T13:15:08;101511.38;;;13.87;44.33
51781;BME280;37844;57.126;24.288;2023-04-29T13:17:53;101503.41;;;13.73;44.66
51781;BME280;37844;57.126;24.288;2023-04-29T13:20:38;101497.25;;;13.64;44.71
51781;BME280;37844;57.126;24.288;2023-04-29T13:23:22;101491.25;;;13.65;44.89
51781;BME280;37844;57.126;24.288;2023-04-29T13:26:05;101488.78;;;13.78;44.95
51781;BME280;37844;57.126;24.288;2023-04-29T13:28:51;101482.84;;;13.84;45.70
51781;BME280;37844;57.126;24.288;2023-04-29T13:31:35;101488.94;;;13.89;45.00
51781;BME280;37844;57.126;24.288;2023-04-29T13:34:19;101465.44;;;13.75;44.76
51781;BME280;37844;57.126;24.288;2023-04-29T13:37:03;101468.84;;;13.71;44.62
51781;BME280;37844;57.126;24.288;2023-04-29T13:39:47;101462.94;;;13.83;45.46
51781;BME280;37844;57.126;24.288;2023-04-29T13:42:31;101457.91;;;13.97;45.51
51781;BME280;37844;57.126;24.288;2023-04-29T13:45:15;101456.94;;;13.87;44.47
51781;BME280;37844;57.126;24.288;2023-04-29T13:47:59;101443.94;;;13.83;44.75
51781;BME280;37844;57.126;24.288;2023-04-29T13:50:43;101440.59;;;13.94;45.04
51781;BME280;37844;57.126;24.288;2023-04-29T13:53:27;101443.47;;;14.22;45.03
51781;BME280;37844;57.126;24.288;2023-04-29T13:56:11;101439.25;;;14.35;43.83
51781;BME280;37844;57.126;24.288;2023-04-29T13:58:55;101435.78;;;14.34;42.92
51781;BME280;37844;57.126;24.288;2023-04-29T14:01:39;101437.47;;;14.29;43.63
51781;BME280;37844;57.126;24.288;2023-04-29T14:04:24;101434.81;;;14.20;43.28
51781;BME280;37844;57.126;24.288;2023-04-29T14:07:08;101433.88;;;14.12;42.07
51781;BME280;37844;57.126;24.288;2023-04-29T14:09:52;101429.41;;;13.98;42.92
51781;BME280;37844;57.126;24.288;2023-04-29T14:12:36;101436.31;;;13.96;43.34
51781;BME280;37844;57.126;24.288;2023-04-29T14:15:20;101421.56;;;13.89;42.99
51781;BME280;37844;57.126;24.288;2023-04-29T14:18:04;101432.78;;;13.90;43.43
51781;BME280;37844;57.126;24.288;2023-04-29T14:20:51;101416.47;;;14.00;44.31
51781;BME280;37844;57.126;24.288;2023-04-29T14:23:36;101415.63;;;14.04;44.74
51781;BME280;37844;57.126;24.288;2023-04-29T14:26:20;101415.66;;;14.03;44.40
51781;BME280;37844;57.126;24.288;2023-04-29T14:29:04;101410.38;;;13.93;44.53